sensor_id;sensor_type;location;lat;lon;timestamp;pressure;altitude;pressure_sealevel;temperature;humidity
60061;BME280;45933;51.336;12.612;2023-12-28T00:00:12;99518.63;;;7.94;54.22
60061;BME280;45933;51.336;12.612;2023-12-28T00:02:38;99522.09;;;7.96;53.64
60061;BME280;45933;51.336;12.612;2023-12-28T00:05:03;99522.94;;;8.03;53.97
60061;BME280;45933;51.336;12.612;2023-12-28T00:07:29;99519.44;;;8.08;53.11
60061;BME280;45933;51.336;12.612;2023-12-28T00:09:54;99511.59;;;8.16;53.29
60061;BME280;45933;51.336;12.612;2023-12-28T00:12:19;99504.66;;;8.17;52.35
60061;BME280;45933;51.336;12.612;2023-12-28T00:14:44;99495.16;;;8.16;51.73
60061;BME280;45933;51.336;12.612;2023-12-28T00:17:10;99496.91;;;8.15;51.26
60061;BME280;45933;51.336;12.612;2023-12-28T00:19:35;99490.78;;;8.28;50.56
60061;BME280;45933;51.336;12.612;2023-12-28T00:22:00;99498.53;;;8.44;51.07
60061;BME280;45933;51.336;12.612;2023-12-28T00:24:25;99511.44;;;8.51;51.03
60061;BME280;45933;51.336;12.612;2023-12-28T00:26:51;99497.53;;;8.60;49.86
60061;BME280;45933;51.336;12.612;2023-12-28T00:29:16;99492.28;;;8.66;50.13
60061;BME280;45933;51.336;12.612;2023-12-28T00:31:41;99485.34;;;8.71;49.01
60061;BME280;45933;51.336;12.612;2023-12-28T00:34:06;99491.41;;;8.70;49.72
60061;BME280;45933;51.336;12.612;2023-12-28T00:36:32;99496.47;;;8.84;49.57
60061;BME280;45933;51.336;12.612;2023-12-28T00:38:57;99499.88;;;8.94;48.77
60061;BME280;45933;51.336;12.612;2023-12-28T00:41:22;99496.38;;;8.98;48.53
60061;BME280;45933;51.336;12.612;2023-12-28T00:43:48;99485.00;;;9.06;48.72
60061;BME280;45933;51.336;12.612;2023-12-28T00:46:13;99496.28;;;9.08;48.24
60061;BME280;45933;51.336;12.612;2023-12-28T00:48:38;99497.97;;;9.11;48.55
60061;BME280;45933;51.336;12.612;2023-12-28T00:51:03;99489.31;;;9.13;47.97
60061;BME280;45933;51.336;12.612;2023-12-28T00:53:29;99491.81;;;9.24;48.52
60061;BME280;45933;51.336;12.612;2023-12-28T00:55:54;99478.78;;;9.26;48.59
60061;BME280;45933;51.336;12.612;2023-12-28T00:58:19;99477.94;;;9.24;48.22
60061;BME280;45933;51.336;12.612;2023-12-28T01:00:45;99476.22;;;9.21;47.68
60061;BME280;45933;51.336;12.612;2023-12-28T01:03:10;99466.53;;;9.37;48.27
60061;BME280;45933;51.336;12.612;2023-12-28T01:05:35;99477.00;;;9.31;47.32
60061;BME280;45933;51.336;12.612;2023-12-28T01:08:00;99489.03;;;9.38;47.93
60061;BME280;45933;51.336;12.612;2023-12-28T01:10:26;99487.31;;;9.40;47.78
60061;BME280;45933;51.336;12.612;2023-12-28T01:12:51;99489.00;;;9.46;47.86
60061;BME280;45933;51.336;12.612;2023-12-28T01:15:16;99478.59;;;9.46;47.86
60061;BME280;45933;51.336;12.612;2023-12-28T01:17:43;99482.06;;;9.45;47.36
60061;BME280;45933;51.336;12.612;2023-12-28T01:20:08;99488.19;;;9.39;47.30
60061;BME280;45933;51.336;12.612;2023-12-28T01:22:34;99493.34;;;9.42;47.11
60061;BME280;45933;51.336;12.612;2023-12-28T01:24:59;99487.31;;;9.38;46.88
60061;BME280;45933;51.336;12.612;2023-12-28T01:27:24;99495.13;;;9.37;46.69
60061;BME280;45933;51.336;12.612;2023-12-28T01:29:50;99492.50;;;9.40;47.09
60061;BME280;45933;51.336;12.612;2023-12-28T01:32:15;99495.19;;;9.34;46.73
60061;BME280;45933;51.336;12.612;2023-12-28T01:34:40;99500.28;;;9.45;47.11
60061;BME280;45933;51.336;12.612;2023-12-28T01:37:07;99502.00;;;9.42;47.09
60061;BME280;45933;51.336;12.612;2023-12-28T01:39:33;99504.63;;;9.41;45.77
60061;BME280;45933;51.336;12.612;2023-12-28T01:41:58;99510.63;;;9.48;46.17
60061;BME280;45933;51.336;12.612;2023-12-28T01:44:23;99501.09;;;9.47;46.12
60061;BME280;45933;51.336;12.612;2023-12-28T01:46:49;99506.22;;;9.54;46.86
60061;BME280;45933;51.336;12.612;2023-12-28T01:49:15;99509.72;;;9.55;46.51
60061;BME280;45933;51.336;12.612;2023-12-28T01:51:41;99515.75;;;9.54;45.48
60061;BME280;45933;51.336;12.612;2023-12-28T01:54:07;99509.72;;;9.55;45.27
60061;BME280;45933;51.336;12.612;2023-12-28T01:56:34;99511.44;;;9.53;46.10
60061;BME280;45933;51.336;12.612;2023-12-28T01:58:59;99500.13;;;9.60;46.36
60061;BME280;45933;51.336;12.612;2023-12-28T02:01:25;99496.56;;;9.64;45.89
60061;BME280;45933;51.336;12.612;2023-12-28T02:03:51;99500.97;;;9.59;45.83
60061;BME280;45933;51.336;12.612;2023-12-28T02:06:18;99485.31;;;9.63;45.66
60061;BME280;45933;51.336;12.612;2023-12-28T02:08:44;99497.47;;;9.63;45.93
60061;BME280;45933;51.336;12.612;2023-12-28T02:11:09;99492.34;;;9.54;46.03
60061;BME280;45933;51.336;12.612;2023-12-28T02:13:35;99481.09;;;9.55;45.89
60061;BME280;45933;51.336;12.612;2023-12-28T02:16:04;99481.00;;;9.61;45.22
60061;BME280;45933;51.336;12.612;2023-12-28T02:18:36;99475.97;;;9.46;44.83
60061;BME280;45933;51.336;12.612;2023-12-28T02:21:04;99465.47;;;9.55;45.47
60061;BME280;45933;51.336;12.612;2023-12-28T02:23:32;99460.25;;;9.56;45.43
60061;BME280;45933;51.336;12.612;2023-12-28T02:25:57;99468.88;;;9.61;45.46
60061;BME280;45933;51.336;12.612;2023-12-28T02:28:23;99459.31;;;9.62;45.32
60061;BME280;45933;51.336;12.612;2023-12-28T02:30:48;99459.34;;;9.60;44.65
60061;BME280;45933;51.336;12.612;2023-12-28T02:33:39;99450.50;;;9.74;44.98
60061;BME280;45933;51.336;12.612;2023-12-28T02:36:11;99462.66;;;9.73;44.50
60061;BME280;45933;51.336;12.612;2023-12-28T02:38:38;99448.81;;;9.69;44.26
60061;BME280;45933;51.336;12.612;2023-12-28T02:41:05;99466.13;;;9.72;43.95
60061;BME280;45933;51.336;12.612;2023-12-28T02:43:31;99460.94;;;9.72;43.69
60061;BME280;45933;51.336;12.612;2023-12-28T02:45:58;99468.69;;;9.77;44.05
60061;BME280;45933;51.336;12.612;2023-12-28T02:48:23;99462.53;;;9.82;44.13
60061;BME280;45933;51.336;12.612;2023-12-28T02:50:48;99470.34;;;9.82;44.13
60061;BME280;45933;51.336;12.612;2023-12-28T02:53:14;99481.66;;;9.78;43.25
60061;BME280;45933;51.336;12.612;2023-12-28T02:55:39;99485.00;;;9.89;44.16
60061;BME280;45933;51.336;12.612;2023-12-28T02:58:04;99490.28;;;9.86;43.77
60061;BME280;45933;51.336;12.612;2023-12-28T03:00:30;99479.91;;;9.82;43.62
60061;BME280;45933;51.336;12.612;2023-12-28T03:02:55;99476.31;;;9.92;44.20
60061;BME280;45933;51.336;12.612;2023-12-28T03:05:21;99478.88;;;9.93;43.25
60061;BME280;45933;51.336;12.612;2023-12-28T03:07:46;99465.84;;;9.97;43.52
60061;BME280;45933;51.336;12.612;2023-12-28T03:10:11;99485.78;;;9.96;43.81
60061;BME280;45933;51.336;12.612;2023-12-28T03:12:37;99490.03;;;10.02;43.52
60061;BME280;45933;51.336;12.612;2023-12-28T03:15:03;99484.91;;;9.99;43.06
60061;BME280;45933;51.336;12.612;2023-12-28T03:17:28;99477.09;;;9.99;43.38
60061;BME280;45933;51.336;12.612;2023-12-28T03:19:56;99496.16;;;10.01;43.21
60061;BME280;45933;51.336;12.612;2023-12-28T03:22:21;99483.03;;;10.07;42.89
60061;BME280;45933;51.336;12.612;2023-12-28T03:24:47;99468.34;;;10.01;42.33
60061;BME280;45933;51.336;12.612;2023-12-28T03:27:12;99473.50;;;10.06;42.85
60061;BME280;45933;51.336;12.612;2023-12-28T03:29:37;99464.78;;;10.10;41.99
60061;BME280;45933;51.336;12.612;2023-12-28T03:32:03;99468.16;;;10.18;42.95
60061;BME280;45933;51.336;12.612;2023-12-28T03:34:28;99462.03;;;10.24;42.65
60061;BME280;45933;51.336;12.612;2023-12-28T03:36:55;99450.69;;;10.26;42.29
60061;BME280;45933;51.336;12.612;2023-12-28T03:39:22;99455.78;;;10.35;41.90
60061;BME280;45933;51.336;12.612;2023-12-28T03:41:47;99461.81;;;10.39;41.71
60061;BME280;45933;51.336;12.612;2023-12-28T03:44:12;99453.91;;;10.43;41.75
60061;BME280;45933;51.336;12.612;2023-12-28T03:46:38;99455.50;;;10.54;42.30
60061;BME280;45933;51.336;12.612;2023-12-28T03:49:03;99472.88;;;10.53;42.07
60061;BME280;45933;51.336;12.612;2023-12-28T03:51:28;99477.16;;;10.57;42.57
60061;BME280;45933;51.336;12.612;2023-12-28T03:53:54;99479.75;;;10.57;42.48
60061;BME280;45933;51.336;12.612;2023-12-28T03:56:23;99485.81;;;10.61;42.70
60061;BME280;45933;51.336;12.612;2023-12-28T03:58:49;99497.09;;;10.61;42.70
60061;BME280;45933;51.336;12.612;2023-12-28T04:01:16;99528.38;;;10.60;42.42
60061;BME280;45933;51.336;12.612;2023-12-28T04:03:42;99515.31;;;10.60;42.43
60061;BME280;45933;51.336;12.612;2023-12-28T04:06:07;99521.38;;;10.63;42.50
60061;BME280;45933;51.336;12.612;2023-12-28T04:08:32;99517.94;;;10.60;42.16
60061;BME280;45933;51.336;12.612;2023-12-28T04:10:57;99517.06;;;10.59;42.97
60061;BME280;45933;51.336;12.612;2023-12-28T04:13:23;99520.63;;;10.54;42.79
60061;BME280;45933;51.336;12.612;2023-12-28T04:15:48;99529.31;;;10.54;42.36
60061;BME280;45933;51.336;12.612;2023-12-28T04:18:13;99544.91;;;10.57;43.17
60061;BME280;45933;51.336;12.612;2023-12-28T04:20:39;99546.69;;;10.55;42.84
60061;BME280;45933;51.336;12.612;2023-12-28T04:23:04;99564.94;;;10.55;42.98
60061;BME280;45933;51.336;12.612;2023-12-28T04:25:29;99552.78;;;10.56;42.41
60061;BME280;45933;51.336;12.612;2023-12-28T04:27:54;99552.78;;;10.56;43.22
60061;BME280;45933;51.336;12.612;2023-12-28T04:30:20;99565.78;;;10.57;43.22
60061;BME280;45933;51.336;12.612;2023-12-28T04:32:45;99553.63;;;10.56;43.27
60061;BME280;45933;51.336;12.612;2023-12-28T04:35:10;99547.50;;;10.60;43.23
60061;BME280;45933;51.336;12.612;2023-12-28T04:37:35;99562.31;;;10.57;43.53
60061;BME280;45933;51.336;12.612;2023-12-28T04:40:01;99550.16;;;10.56;43.71
60061;BME280;45933;51.336;12.612;2023-12-28T04:42:28;99550.16;;;10.56;43.66
60061;BME280;45933;51.336;12.612;2023-12-28T04:44:54;99557.91;;;10.59;43.87
60061;BME280;45933;51.336;12.612;2023-12-28T04:47:19;99567.47;;;10.60;43.87
60061;BME280;45933;51.336;12.612;2023-12-28T04:49:44;99578.78;;;10.59;44.11
60061;BME280;45933;51.336;12.612;2023-12-28T04:52:09;99576.19;;;10.57;44.03
60061;BME280;45933;51.336;12.612;2023-12-28T04:54:35;99574.41;;;10.59;44.83
60061;BME280;45933;51.336;12.612;2023-12-28T04:57:00;99571.91;;;10.53;44.79
60061;BME280;45933;51.336;12.612;2023-12-28T04:59:25;99572.66;;;10.60;44.45
60061;BME280;45933;51.336;12.612;2023-12-28T05:01:51;99572.66;;;10.60;44.40
60061;BME280;45933;51.336;12.612;2023-12-28T05:04:16;99564.00;;;10.61;44.56
60061;BME280;45933;51.336;12.612;2023-12-28T05:06:42;99563.06;;;10.63;44.59
60061;BME280;45933;51.336;12.612;2023-12-28T05:09:07;99574.34;;;10.65;44.60
60061;BME280;45933;51.336;12.612;2023-12-28T05:11:32;99590.88;;;10.63;44.47
60061;BME280;45933;51.336;12.612;2023-12-28T05:13:57;99594.34;;;10.63;44.42
60061;BME280;45933;51.336;12.612;2023-12-28T05:16:23;99605.63;;;10.65;44.58
60061;BME280;45933;51.336;12.612;2023-12-28T05:18:48;99590.00;;;10.65;44.67
60061;BME280;45933;51.336;12.612;2023-12-28T05:21:13;99608.22;;;10.67;44.64
60061;BME280;45933;51.336;12.612;2023-12-28T05:23:39;99589.97;;;10.67;44.65
60061;BME280;45933;51.336;12.612;2023-12-28T05:26:04;99596.88;;;10.71;44.93
60061;BME280;45933;51.336;12.612;2023-12-28T05:28:31;99612.47;;;10.72;44.86
60061;BME280;45933;51.336;12.612;2023-12-28T05:30:56;99597.75;;;10.68;44.81
60061;BME280;45933;51.336;12.612;2023-12-28T05:33:24;99597.66;;;10.74;44.88
60061;BME280;45933;51.336;12.612;2023-12-28T05:35:49;99601.16;;;10.73;45.04
60061;BME280;45933;51.336;12.612;2023-12-28T05:38:14;99614.13;;;10.78;44.78
60061;BME280;45933;51.336;12.612;2023-12-28T05:40:39;99605.50;;;10.76;44.75
60061;BME280;45933;51.336;12.612;2023-12-28T05:43:05;99605.47;;;10.78;44.73
60061;BME280;45933;51.336;12.612;2023-12-28T05:45:30;99607.22;;;10.77;45.00
60061;BME280;45933;51.336;12.612;2023-12-28T05:47:55;99613.22;;;10.82;45.06
60061;BME280;45933;51.336;12.612;2023-12-28T05:50:21;99601.94;;;10.82;44.93
60061;BME280;45933;51.336;12.612;2023-12-28T05:52:46;99592.44;;;10.78;44.99
60061;BME280;45933;51.336;12.612;2023-12-28T05:55:11;99584.56;;;10.79;45.38
60061;BME280;45933;51.336;12.612;2023-12-28T05:57:37;99594.94;;;10.84;45.46
60061;BME280;45933;51.336;12.612;2023-12-28T06:00:02;99593.25;;;10.80;45.25
60061;BME280;45933;51.336;12.612;2023-12-28T06:02:29;99591.56;;;10.77;45.50
60061;BME280;45933;51.336;12.612;2023-12-28T06:04:54;99595.03;;;10.78;45.67
60061;BME280;45933;51.336;12.612;2023-12-28T06:07:20;99600.19;;;10.81;45.83
60061;BME280;45933;51.336;12.612;2023-12-28T06:09:45;99608.09;;;10.74;45.63
60061;BME280;45933;51.336;12.612;2023-12-28T06:12:11;99603.88;;;10.66;45.76
60061;BME280;45933;51.336;12.612;2023-12-28T06:14:36;99606.47;;;10.67;45.86
60061;BME280;45933;51.336;12.612;2023-12-28T06:17:02;99618.59;;;10.68;46.12
60061;BME280;45933;51.336;12.612;2023-12-28T06:19:27;99599.47;;;10.69;46.18
60061;BME280;45933;51.336;12.612;2023-12-28T06:21:53;99606.38;;;10.73;45.91
60061;BME280;45933;51.336;12.612;2023-12-28T06:24:19;99586.56;;;10.62;46.48
60061;BME280;45933;51.336;12.612;2023-12-28T06:26:44;99599.56;;;10.63;46.55
60061;BME280;45933;51.336;12.612;2023-12-28T06:29:10;99615.16;;;10.68;46.62
60061;BME280;45933;51.336;12.612;2023-12-28T06:31:36;99623.88;;;10.64;46.48
60061;BME280;45933;51.336;12.612;2023-12-28T06:34:03;99625.47;;;10.76;46.58
60061;BME280;45933;51.336;12.612;2023-12-28T06:36:28;99623.78;;;10.71;46.51
60061;BME280;45933;51.336;12.612;2023-12-28T06:38:54;99621.28;;;10.65;47.03
60061;BME280;45933;51.336;12.612;2023-12-28T06:41:19;99631.59;;;10.73;46.66
60061;BME280;45933;51.336;12.612;2023-12-28T06:43:44;99638.50;;;10.76;46.77
60061;BME280;45933;51.336;12.612;2023-12-28T06:46:09;99643.69;;;10.76;47.01
60061;BME280;45933;51.336;12.612;2023-12-28T06:48:35;99644.59;;;10.76;46.83
60061;BME280;45933;51.336;12.612;2023-12-28T06:51:00;99649.81;;;10.74;47.04
60061;BME280;45933;51.336;12.612;2023-12-28T06:53:25;99654.22;;;10.69;46.94
60061;BME280;45933;51.336;12.612;2023-12-28T06:55:50;99655.06;;;10.71;47.29
60061;BME280;45933;51.336;12.612;2023-12-28T06:58:16;99656.81;;;10.69;47.08
60061;BME280;45933;51.336;12.612;2023-12-28T07:00:41;99653.31;;;10.72;46.99
60061;BME280;45933;51.336;12.612;2023-12-28T07:03:09;99647.31;;;10.67;47.32
60061;BME280;45933;51.336;12.612;2023-12-28T07:05:34;99646.41;;;10.68;47.63
60061;BME280;45933;51.336;12.612;2023-12-28T07:07:59;99647.38;;;10.62;48.04
60061;BME280;45933;51.336;12.612;2023-12-28T07:10:24;99643.00;;;10.66;47.98
60061;BME280;45933;51.336;12.612;2023-12-28T07:12:50;99649.06;;;10.66;47.90
60061;BME280;45933;51.336;12.612;2023-12-28T07:15:15;99658.69;;;10.60;48.48
60061;BME280;45933;51.336;12.612;2023-12-28T07:17:40;99656.03;;;10.64;48.34
60061;BME280;45933;51.336;12.612;2023-12-28T07:20:07;99642.13;;;10.64;48.63
60061;BME280;45933;51.336;12.612;2023-12-28T07:22:34;99656.88;;;10.65;48.64
60061;BME280;45933;51.336;12.612;2023-12-28T07:24:59;99666.44;;;10.64;48.68
60061;BME280;45933;51.336;12.612;2023-12-28T07:27:25;99678.66;;;10.62;48.96
60061;BME280;45933;51.336;12.612;2023-12-28T07:29:50;99681.25;;;10.62;49.00
60061;BME280;45933;51.336;12.612;2023-12-28T07:32:15;99681.34;;;10.56;49.32
60061;BME280;45933;51.336;12.612;2023-12-28T07:34:40;99697.84;;;10.55;49.38
60061;BME280;45933;51.336;12.612;2023-12-28T07:37:06;99693.44;;;10.59;49.72
60061;BME280;45933;51.336;12.612;2023-12-28T07:39:31;99694.34;;;10.58;49.75
60061;BME280;45933;51.336;12.612;2023-12-28T07:41:56;99700.44;;;10.57;49.85
60061;BME280;45933;51.336;12.612;2023-12-28T07:44:21;99694.38;;;10.56;49.82
60061;BME280;45933;51.336;12.612;2023-12-28T07:46:47;99697.00;;;10.55;49.73
60061;BME280;45933;51.336;12.612;2023-12-28T07:49:12;99683.97;;;10.52;49.89
60061;BME280;45933;51.336;12.612;2023-12-28T07:51:37;99694.41;;;10.52;49.94
60061;BME280;45933;51.336;12.612;2023-12-28T07:54:02;99693.56;;;10.48;50.49
60061;BME280;45933;51.336;12.612;2023-12-28T07:56:28;99699.72;;;10.44;50.42
60061;BME280;45933;51.336;12.612;2023-12-28T07:58:54;99705.81;;;10.41;50.50
60061;BME280;45933;51.336;12.612;2023-12-28T08:01:19;99698.84;;;10.42;50.10
60061;BME280;45933;51.336;12.612;2023-12-28T08:03:45;99694.56;;;10.39;50.15
60061;BME280;45933;51.336;12.612;2023-12-28T08:06:10;99701.50;;;10.39;49.92
60061;BME280;45933;51.336;12.612;2023-12-28T08:08:38;99705.91;;;10.34;50.18
60061;BME280;45933;51.336;12.612;2023-12-28T08:11:03;99700.75;;;10.28;50.36
60061;BME280;45933;51.336;12.612;2023-12-28T08:13:28;99702.50;;;10.29;50.26
60061;BME280;45933;51.336;12.612;2023-12-28T08:15:53;99706.00;;;10.25;50.50
60061;BME280;45933;51.336;12.612;2023-12-28T08:18:19;99704.25;;;10.20;50.38
60061;BME280;45933;51.336;12.612;2023-12-28T08:20:44;99705.13;;;10.21;50.68
60061;BME280;45933;51.336;12.612;2023-12-28T08:23:10;99704.25;;;10.20;50.59
60061;BME280;45933;51.336;12.612;2023-12-28T08:25:35;99697.44;;;10.09;51.18
60061;BME280;45933;51.336;12.612;2023-12-28T08:28:00;99709.50;;;10.16;50.88
60061;BME280;45933;51.336;12.612;2023-12-28T08:30:25;99709.53;;;10.14;50.92
60061;BME280;45933;51.336;12.612;2023-12-28T08:32:52;99722.59;;;10.13;51.16
60061;BME280;45933;51.336;12.612;2023-12-28T08:35:18;99719.97;;;10.13;51.10
60061;BME280;45933;51.336;12.612;2023-12-28T08:37:43;99726.06;;;10.10;50.80
60061;BME280;45933;51.336;12.612;2023-12-28T08:40:08;99736.47;;;10.10;51.19
60061;BME280;45933;51.336;12.612;2023-12-28T08:42:34;99733.84;;;10.12;51.19
60061;BME280;45933;51.336;12.612;2023-12-28T08:44:59;99743.41;;;10.11;51.46
60061;BME280;45933;51.336;12.612;2023-12-28T08:47:24;99741.72;;;10.09;51.32
60061;BME280;45933;51.336;12.612;2023-12-28T08:49:50;99742.56;;;10.09;51.37
60061;BME280;45933;51.336;12.612;2023-12-28T08:52:15;99744.31;;;10.09;51.38
60061;BME280;45933;51.336;12.612;2023-12-28T08:54:40;99742.56;;;10.11;51.41
60061;BME280;45933;51.336;12.612;2023-12-28T08:57:06;99753.88;;;10.07;51.74
60061;BME280;45933;51.336;12.612;2023-12-28T08:59:35;99755.56;;;10.11;51.62
60061;BME280;45933;51.336;12.612;2023-12-28T09:02:01;99764.28;;;10.07;51.79
60061;BME280;45933;51.336;12.612;2023-12-28T09:04:26;99764.28;;;10.08;51.98
60061;BME280;45933;51.336;12.612;2023-12-28T09:06:51;99764.34;;;10.04;52.01
60061;BME280;45933;51.336;12.612;2023-12-28T09:09:18;99767.75;;;10.09;51.85
60061;BME280;45933;51.336;12.612;2023-12-28T09:11:43;99749.56;;;10.07;51.76
60061;BME280;45933;51.336;12.612;2023-12-28T09:14:08;99765.16;;;10.06;51.81
60061;BME280;45933;51.336;12.612;2023-12-28T09:16:34;99756.47;;;10.08;51.89
60061;BME280;45933;51.336;12.612;2023-12-28T09:19:00;99770.38;;;10.06;52.07
60061;BME280;45933;51.336;12.612;2023-12-28T09:21:25;99772.09;;;10.07;52.20
60061;BME280;45933;51.336;12.612;2023-12-28T09:23:51;99760.81;;;10.06;52.07
60061;BME280;45933;51.336;12.612;2023-12-28T09:26:16;99757.34;;;10.06;52.36
60061;BME280;45933;51.336;12.612;2023-12-28T09:28:43;99746.97;;;10.04;52.53
60061;BME280;45933;51.336;12.612;2023-12-28T09:31:09;99752.22;;;9.98;53.27
60061;BME280;45933;51.336;12.612;2023-12-28T09:33:34;99741.75;;;10.04;52.84
60061;BME280;45933;51.336;12.612;2023-12-28T09:36:00;99735.63;;;10.07;52.77
60061;BME280;45933;51.336;12.612;2023-12-28T09:38:27;99736.53;;;10.07;52.70
60061;BME280;45933;51.336;12.612;2023-12-28T09:40:54;99737.34;;;10.11;53.19
60061;BME280;45933;51.336;12.612;2023-12-28T09:43:31;99733.81;;;10.16;52.92
60061;BME280;45933;51.336;12.612;2023-12-28T09:46:05;99730.38;;;10.14;53.27
60061;BME280;45933;51.336;12.612;2023-12-28T09:48:34;99738.16;;;10.16;53.13
60061;BME280;45933;51.336;12.612;2023-12-28T09:51:01;99738.16;;;10.19;53.18
60061;BME280;45933;51.336;12.612;2023-12-28T09:53:27;99744.19;;;10.21;53.26
60061;BME280;45933;51.336;12.612;2023-12-28T09:55:52;99739.84;;;10.21;53.60
60061;BME280;45933;51.336;12.612;2023-12-28T09:58:19;99744.19;;;10.21;53.64
60061;BME280;45933;51.336;12.612;2023-12-28T10:00:46;99736.38;;;10.21;54.10
60061;BME280;45933;51.336;12.612;2023-12-28T10:03:15;99732.03;;;10.21;54.68
60061;BME280;45933;51.336;12.612;2023-12-28T10:05:41;99735.50;;;10.27;54.05
60061;BME280;45933;51.336;12.612;2023-12-28T10:08:07;99738.13;;;10.25;54.68
60061;BME280;45933;51.336;12.612;2023-12-28T10:10:32;99740.66;;;10.31;54.14
60061;BME280;45933;51.336;12.612;2023-12-28T10:12:57;99743.22;;;10.36;54.15
60061;BME280;45933;51.336;12.612;2023-12-28T10:15:23;99745.81;;;10.37;54.28
60061;BME280;45933;51.336;12.612;2023-12-28T10:17:51;99749.28;;;10.38;55.12
60061;BME280;45933;51.336;12.612;2023-12-28T10:20:17;99741.41;;;10.44;54.29
60061;BME280;45933;51.336;12.612;2023-12-28T10:22:43;99740.47;;;10.48;54.67
60061;BME280;45933;51.336;12.612;2023-12-28T10:25:08;99742.28;;;10.44;54.78
60061;BME280;45933;51.336;12.612;2023-12-28T10:27:38;99743.06;;;10.51;54.97
60061;BME280;45933;51.336;12.612;2023-12-28T10:30:04;99736.16;;;10.47;55.10
60061;BME280;45933;51.336;12.612;2023-12-28T10:32:30;99736.13;;;10.48;55.22
60061;BME280;45933;51.336;12.612;2023-12-28T10:34:55;99731.75;;;10.52;55.20
60061;BME280;45933;51.336;12.612;2023-12-28T10:37:21;99717.84;;;10.53;55.11
60061;BME280;45933;51.336;12.612;2023-12-28T10:39:49;99723.06;;;10.55;55.50
60061;BME280;45933;51.336;12.612;2023-12-28T10:42:28;99722.91;;;10.67;54.61
60061;BME280;45933;51.336;12.612;2023-12-28T10:45:02;99725.50;;;10.68;54.87
60061;BME280;45933;51.336;12.612;2023-12-28T10:47:31;99732.41;;;10.72;55.01
60061;BME280;45933;51.336;12.612;2023-12-28T10:50:00;99733.97;;;10.86;54.95
60061;BME280;45933;51.336;12.612;2023-12-28T10:52:28;99740.78;;;10.96;54.72
60061;BME280;45933;51.336;12.612;2023-12-28T10:55:04;99736.19;;;11.16;54.77
60061;BME280;45933;51.336;12.612;2023-12-28T10:57:53;99751.53;;;11.39;54.38
60061;BME280;45933;51.336;12.612;2023-12-28T11:00:26;99744.25;;;11.61;53.95
60061;BME280;45933;51.336;12.612;2023-12-28T11:02:58;99762.97;;;11.89;53.91
60061;BME280;45933;51.336;12.612;2023-12-28T11:05:28;99745.03;;;12.20;54.05
60061;BME280;45933;51.336;12.612;2023-12-28T11:07:55;99742.78;;;12.50;52.78
60061;BME280;45933;51.336;12.612;2023-12-28T11:10:23;99741.28;;;12.80;51.85
60061;BME280;45933;51.336;12.612;2023-12-28T11:12:51;99736.16;;;13.19;51.56
60061;BME280;45933;51.336;12.612;2023-12-28T11:15:17;99748.41;;;13.57;51.31
60061;BME280;45933;51.336;12.612;2023-12-28T11:17:43;99749.25;;;13.95;50.75
60061;BME280;45933;51.336;12.612;2023-12-28T11:20:09;99752.59;;;14.34;50.13
60061;BME280;45933;51.336;12.612;2023-12-28T11:22:35;99746.09;;;14.81;49.99
60061;BME280;45933;51.336;12.612;2023-12-28T11:25:01;99748.63;;;15.15;48.02
60061;BME280;45933;51.336;12.612;2023-12-28T11:27:36;99734.13;;;15.60;48.01
60061;BME280;45933;51.336;12.612;2023-12-28T11:30:05;99728.78;;;15.91;45.87
60061;BME280;45933;51.336;12.612;2023-12-28T11:32:36;99726.59;;;16.30;46.97
60061;BME280;45933;51.336;12.612;2023-12-28T11:35:01;99719.25;;;16.40;44.68
60061;BME280;45933;51.336;12.612;2023-12-28T11:37:29;99720.44;;;16.55;43.76
60061;BME280;45933;51.336;12.612;2023-12-28T11:39:54;99734.66;;;16.49;43.45
60061;BME280;45933;51.336;12.612;2023-12-28T11:42:22;99712.22;;;16.39;42.43
60061;BME280;45933;51.336;12.612;2023-12-28T11:44:53;99709.03;;;16.31;42.42
60061;BME280;45933;51.336;12.612;2023-12-28T11:47:23;99709.25;;;16.25;42.43
60061;BME280;45933;51.336;12.612;2023-12-28T11:49:49;99706.06;;;16.15;42.76
60061;BME280;45933;51.336;12.612;2023-12-28T11:52:37;99704.94;;;16.22;42.91
60061;BME280;45933;51.336;12.612;2023-12-28T11:55:03;99706.16;;;16.12;42.77
60061;BME280;45933;51.336;12.612;2023-12-28T11:57:29;99705.94;;;16.18;42.54
60061;BME280;45933;51.336;12.612;2023-12-28T11:59:56;99711.03;;;16.24;42.75
60061;BME280;45933;51.336;12.612;2023-12-28T12:02:22;99716.06;;;16.30;43.10
60061;BME280;45933;51.336;12.612;2023-12-28T12:04:49;99711.34;;;16.40;42.20
60061;BME280;45933;51.336;12.612;2023-12-28T12:07:14;99700.22;;;16.57;42.14
60061;BME280;45933;51.336;12.612;2023-12-28T12:09:39;99702.94;;;16.54;41.57
60061;BME280;45933;51.336;12.612;2023-12-28T12:12:06;99707.22;;;16.81;41.66
60061;BME280;45933;51.336;12.612;2023-12-28T12:14:31;99708.44;;;16.96;41.70
60061;BME280;45933;51.336;12.612;2023-12-28T12:16:57;99702.41;;;17.16;41.96
60061;BME280;45933;51.336;12.612;2023-12-28T12:19:24;99707.88;;;17.33;41.42
60061;BME280;45933;51.336;12.612;2023-12-28T12:21:52;99712.44;;;17.51;40.61
60061;BME280;45933;51.336;12.612;2023-12-28T12:24:18;99708.63;;;17.81;40.16
60061;BME280;45933;51.336;12.612;2023-12-28T12:26:44;99701.31;;;18.09;40.87
60061;BME280;45933;51.336;12.612;2023-12-28T12:29:10;99698.72;;;18.28;39.67
60061;BME280;45933;51.336;12.612;2023-12-28T12:31:36;99702.69;;;18.38;38.80
60061;BME280;45933;51.336;12.612;2023-12-28T12:34:03;99692.75;;;18.64;38.64
60061;BME280;45933;51.336;12.612;2023-12-28T12:36:28;99696.97;;;18.88;39.25
60061;BME280;45933;51.336;12.612;2023-12-28T12:38:54;99689.75;;;19.11;38.32
60061;BME280;45933;51.336;12.612;2023-12-28T12:41:19;99686.69;;;19.20;37.31
60061;BME280;45933;51.336;12.612;2023-12-28T12:43:44;99692.88;;;19.38;37.00
60061;BME280;45933;51.336;12.612;2023-12-28T12:46:10;99687.16;;;19.47;37.07